Parkdale, Colorado
Current Conditions -  °F | °C
As of 6:50 PM on Monday 20 Oct 2014 (Local Time) from K1V6 Reporting Station
Clear Clear  
Wind Chill: 63°   Ceiling: Unl
Heat Index: 63°   Visibility: 10mi
Dew Point: 36°   Wind: 9mph
Humidity: 37%   Direction: 40°NE
Pressure: 30.13"   Gusts: NA
Location:  38.533°N, 105.389°W
Report Text: K1V6 210050Z AUTO 04008KT 10SM CLR 17/02 A3013 RMK AO2
Loading
Personal Weather Stations






























Interactive Weather Map
Tropical Storm Tracking
New forecast layout! Learn more

10-Day Weather Forecast

Advertisements
Track Severe Weather on mobile